sensor_id;sensor_type;location;lat;lon;timestamp;P1;durP1;ratioP1;P2;durP2;ratioP2
1404;SDS011;697;51.114;6.542;2023-08-06T00:00:24;3.17;;;2.87;;
1404;SDS011;697;51.114;6.542;2023-08-06T00:02:51;3.97;;;2.60;;
1404;SDS011;697;51.114;6.542;2023-08-06T00:05:18;5.50;;;2.73;;
1404;SDS011;697;51.114;6.542;2023-08-06T00:07:47;5.37;;;2.87;;
1404;SDS011;697;51.114;6.542;2023-08-06T00:10:14;2.70;;;2.13;;
1404;SDS011;697;51.114;6.542;2023-08-06T00:12:41;4.43;;;2.90;;
1404;SDS011;697;51.114;6.542;2023-08-06T00:15:08;5.40;;;3.00;;
1404;SDS011;697;51.114;6.542;2023-08-06T00:17:35;2.90;;;2.70;;
1404;SDS011;697;51.114;6.542;2023-08-06T00:20:02;3.20;;;2.90;;
1404;SDS011;697;51.114;6.542;2023-08-06T00:22:31;5.00;;;3.30;;
1404;SDS011;697;51.114;6.542;2023-08-06T00:24:59;7.70;;;3.00;;
1404;SDS011;697;51.114;6.542;2023-08-06T00:27:26;3.13;;;2.83;;
1404;SDS011;697;51.114;6.542;2023-08-06T00:29:53;3.03;;;2.70;;
1404;SDS011;697;51.114;6.542;2023-08-06T00:32:20;2.83;;;2.60;;
1404;SDS011;697;51.114;6.542;2023-08-06T00:34:47;5.00;;;2.80;;
1404;SDS011;697;51.114;6.542;2023-08-06T00:37:14;3.60;;;3.03;;
1404;SDS011;697;51.114;6.542;2023-08-06T00:39:42;3.23;;;2.93;;
1404;SDS011;697;51.114;6.542;2023-08-06T00:42:10;3.07;;;2.80;;
1404;SDS011;697;51.114;6.542;2023-08-06T00:44:37;3.33;;;3.03;;
1404;SDS011;697;51.114;6.542;2023-08-06T00:47:05;5.13;;;3.10;;
1404;SDS011;697;51.114;6.542;2023-08-06T00:49:33;2.70;;;2.50;;
1404;SDS011;697;51.114;6.542;2023-08-06T00:52:01;3.17;;;2.87;;
1404;SDS011;697;51.114;6.542;2023-08-06T00:54:29;4.30;;;3.00;;
1404;SDS011;697;51.114;6.542;2023-08-06T00:56:57;3.43;;;2.37;;
1404;SDS011;697;51.114;6.542;2023-08-06T00:59:26;4.00;;;2.70;;
1404;SDS011;697;51.114;6.542;2023-08-06T01:01:54;4.73;;;2.90;;
1404;SDS011;697;51.114;6.542;2023-08-06T01:04:20;3.40;;;2.53;;
1404;SDS011;697;51.114;6.542;2023-08-06T01:06:48;4.53;;;3.07;;
1404;SDS011;697;51.114;6.542;2023-08-06T01:09:21;2.53;;;2.20;;
1404;SDS011;697;51.114;6.542;2023-08-06T01:11:59;4.00;;;3.17;;
1404;SDS011;697;51.114;6.542;2023-08-06T01:14:37;2.97;;;2.57;;
1404;SDS011;697;51.114;6.542;2023-08-06T01:17:12;3.70;;;2.67;;
1404;SDS011;697;51.114;6.542;2023-08-06T01:19:40;3.37;;;2.60;;
1404;SDS011;697;51.114;6.542;2023-08-06T01:22:08;2.80;;;2.60;;
1404;SDS011;697;51.114;6.542;2023-08-06T01:24:35;4.90;;;3.33;;
1404;SDS011;697;51.114;6.542;2023-08-06T01:27:03;3.30;;;2.83;;
1404;SDS011;697;51.114;6.542;2023-08-06T01:29:35;2.80;;;2.57;;
1404;SDS011;697;51.114;6.542;2023-08-06T01:32:05;4.10;;;2.70;;
1404;SDS011;697;51.114;6.542;2023-08-06T01:34:34;3.60;;;2.70;;
1404;SDS011;697;51.114;6.542;2023-08-06T01:37:03;3.60;;;3.30;;
1404;SDS011;697;51.114;6.542;2023-08-06T01:39:32;2.57;;;2.37;;
1404;SDS011;697;51.114;6.542;2023-08-06T01:42:00;3.30;;;2.77;;
1404;SDS011;697;51.114;6.542;2023-08-06T01:44:26;3.50;;;2.70;;
1404;SDS011;697;51.114;6.542;2023-08-06T01:46:53;4.93;;;2.40;;
1404;SDS011;697;51.114;6.542;2023-08-06T01:49:20;5.13;;;2.83;;
1404;SDS011;697;51.114;6.542;2023-08-06T01:51:47;2.63;;;2.13;;
1404;SDS011;697;51.114;6.542;2023-08-06T01:54:13;2.50;;;2.30;;
1404;SDS011;697;51.114;6.542;2023-08-06T01:56:41;2.97;;;2.73;;
1404;SDS011;697;51.114;6.542;2023-08-06T01:59:08;2.43;;;2.20;;
1404;SDS011;697;51.114;6.542;2023-08-06T02:01:35;4.80;;;2.33;;
1404;SDS011;697;51.114;6.542;2023-08-06T02:04:01;2.07;;;1.97;;
1404;SDS011;697;51.114;6.542;2023-08-06T02:06:28;2.77;;;2.17;;
1404;SDS011;697;51.114;6.542;2023-08-06T02:08:55;2.40;;;2.20;;
1404;SDS011;697;51.114;6.542;2023-08-06T02:11:22;3.00;;;2.10;;
1404;SDS011;697;51.114;6.542;2023-08-06T02:13:50;5.00;;;2.33;;
1404;SDS011;697;51.114;6.542;2023-08-06T02:16:16;3.27;;;2.07;;
1404;SDS011;697;51.114;6.542;2023-08-06T02:18:43;3.63;;;2.00;;
1404;SDS011;697;51.114;6.542;2023-08-06T02:21:09;3.53;;;1.93;;
1404;SDS011;697;51.114;6.542;2023-08-06T02:23:36;3.97;;;1.80;;
1404;SDS011;697;51.114;6.542;2023-08-06T02:26:03;2.23;;;1.83;;
1404;SDS011;697;51.114;6.542;2023-08-06T02:28:30;1.97;;;1.63;;
1404;SDS011;697;51.114;6.542;2023-08-06T02:30:59;2.03;;;1.70;;
1404;SDS011;697;51.114;6.542;2023-08-06T02:33:26;2.30;;;1.50;;
1404;SDS011;697;51.114;6.542;2023-08-06T02:35:58;1.87;;;1.60;;
1404;SDS011;697;51.114;6.542;2023-08-06T02:38:26;1.90;;;1.80;;
1404;SDS011;697;51.114;6.542;2023-08-06T02:40:52;2.53;;;1.83;;
1404;SDS011;697;51.114;6.542;2023-08-06T02:43:19;3.57;;;1.93;;
1404;SDS011;697;51.114;6.542;2023-08-06T02:45:46;3.60;;;1.97;;
1404;SDS011;697;51.114;6.542;2023-08-06T02:48:14;3.70;;;1.97;;
1404;SDS011;697;51.114;6.542;2023-08-06T02:50:41;2.83;;;1.83;;
1404;SDS011;697;51.114;6.542;2023-08-06T02:53:08;2.40;;;2.20;;
1404;SDS011;697;51.114;6.542;2023-08-06T02:55:35;3.37;;;2.10;;
1404;SDS011;697;51.114;6.542;2023-08-06T02:58:01;2.40;;;2.20;;
1404;SDS011;697;51.114;6.542;2023-08-06T03:00:28;2.20;;;2.00;;
1404;SDS011;697;51.114;6.542;2023-08-06T03:02:55;2.50;;;2.10;;
1404;SDS011;697;51.114;6.542;2023-08-06T03:05:23;2.30;;;1.70;;
1404;SDS011;697;51.114;6.542;2023-08-06T03:07:50;6.53;;;2.30;;
1404;SDS011;697;51.114;6.542;2023-08-06T03:10:16;2.93;;;1.77;;
1404;SDS011;697;51.114;6.542;2023-08-06T03:12:43;7.27;;;1.80;;
1404;SDS011;697;51.114;6.542;2023-08-06T03:15:10;2.47;;;2.27;;
1404;SDS011;697;51.114;6.542;2023-08-06T03:17:36;2.53;;;1.70;;
1404;SDS011;697;51.114;6.542;2023-08-06T03:20:04;2.43;;;1.73;;
1404;SDS011;697;51.114;6.542;2023-08-06T03:22:33;2.83;;;1.70;;
1404;SDS011;697;51.114;6.542;2023-08-06T03:24:59;1.40;;;1.30;;
1404;SDS011;697;51.114;6.542;2023-08-06T03:27:26;1.70;;;1.60;;
1404;SDS011;697;51.114;6.542;2023-08-06T03:29:53;1.80;;;1.70;;
1404;SDS011;697;51.114;6.542;2023-08-06T03:32:20;1.90;;;1.80;;
1404;SDS011;697;51.114;6.542;2023-08-06T03:34:46;2.63;;;1.67;;
1404;SDS011;697;51.114;6.542;2023-08-06T03:37:13;1.80;;;1.67;;
1404;SDS011;697;51.114;6.542;2023-08-06T03:39:41;6.10;;;1.90;;
1404;SDS011;697;51.114;6.542;2023-08-06T03:42:08;2.17;;;1.73;;
1404;SDS011;697;51.114;6.542;2023-08-06T03:44:34;4.40;;;1.63;;
1404;SDS011;697;51.114;6.542;2023-08-06T03:47:01;2.40;;;2.00;;
1404;SDS011;697;51.114;6.542;2023-08-06T03:49:28;3.60;;;1.83;;
1404;SDS011;697;51.114;6.542;2023-08-06T03:51:57;3.50;;;2.40;;
1404;SDS011;697;51.114;6.542;2023-08-06T03:54:24;3.13;;;2.17;;
1404;SDS011;697;51.114;6.542;2023-08-06T03:56:52;4.50;;;2.03;;
1404;SDS011;697;51.114;6.542;2023-08-06T03:59:18;4.43;;;2.03;;
1404;SDS011;697;51.114;6.542;2023-08-06T04:01:45;3.87;;;2.40;;
1404;SDS011;697;51.114;6.542;2023-08-06T04:04:12;2.60;;;2.40;;
1404;SDS011;697;51.114;6.542;2023-08-06T04:06:39;2.70;;;1.97;;
1404;SDS011;697;51.114;6.542;2023-08-06T04:09:06;2.03;;;1.80;;
1404;SDS011;697;51.114;6.542;2023-08-06T04:11:33;1.93;;;1.70;;
1404;SDS011;697;51.114;6.542;2023-08-06T04:14:01;4.40;;;2.50;;
1404;SDS011;697;51.114;6.542;2023-08-06T04:16:27;3.03;;;2.40;;
1404;SDS011;697;51.114;6.542;2023-08-06T04:18:54;3.60;;;1.80;;
1404;SDS011;697;51.114;6.542;2023-08-06T04:21:21;3.03;;;2.07;;
1404;SDS011;697;51.114;6.542;2023-08-06T04:23:48;2.77;;;2.10;;
1404;SDS011;697;51.114;6.542;2023-08-06T04:26:14;2.50;;;2.23;;
1404;SDS011;697;51.114;6.542;2023-08-06T04:28:41;4.07;;;2.33;;
1404;SDS011;697;51.114;6.542;2023-08-06T04:31:09;3.20;;;2.17;;
1404;SDS011;697;51.114;6.542;2023-08-06T04:33:36;1.93;;;1.53;;
1404;SDS011;697;51.114;6.542;2023-08-06T04:36:03;2.27;;;1.90;;
1404;SDS011;697;51.114;6.542;2023-08-06T04:38:30;3.07;;;2.00;;
1404;SDS011;697;51.114;6.542;2023-08-06T04:40:56;2.33;;;1.50;;
1404;SDS011;697;51.114;6.542;2023-08-06T04:43:23;3.03;;;1.53;;
1404;SDS011;697;51.114;6.542;2023-08-06T04:45:53;2.67;;;2.10;;
1404;SDS011;697;51.114;6.542;2023-08-06T04:48:22;1.70;;;1.60;;
1404;SDS011;697;51.114;6.542;2023-08-06T04:50:49;1.83;;;1.70;;
1404;SDS011;697;51.114;6.542;2023-08-06T04:53:16;2.70;;;1.37;;
1404;SDS011;697;51.114;6.542;2023-08-06T04:55:43;2.40;;;1.20;;
1404;SDS011;697;51.114;6.542;2023-08-06T04:58:10;5.40;;;1.60;;
1404;SDS011;697;51.114;6.542;2023-08-06T05:00:39;2.63;;;1.30;;
1404;SDS011;697;51.114;6.542;2023-08-06T05:03:05;2.13;;;1.33;;
1404;SDS011;697;51.114;6.542;2023-08-06T05:05:34;1.03;;;0.93;;
1404;SDS011;697;51.114;6.542;2023-08-06T05:08:00;4.43;;;1.77;;
1404;SDS011;697;51.114;6.542;2023-08-06T05:10:27;1.73;;;1.53;;
1404;SDS011;697;51.114;6.542;2023-08-06T05:12:54;1.50;;;1.23;;
1404;SDS011;697;51.114;6.542;2023-08-06T05:15:20;5.30;;;1.23;;
1404;SDS011;697;51.114;6.542;2023-08-06T05:17:47;3.63;;;1.97;;
1404;SDS011;697;51.114;6.542;2023-08-06T05:20:14;3.10;;;1.80;;
1404;SDS011;697;51.114;6.542;2023-08-06T05:22:42;3.00;;;1.43;;
1404;SDS011;697;51.114;6.542;2023-08-06T05:25:09;2.50;;;1.60;;
1404;SDS011;697;51.114;6.542;2023-08-06T05:27:39;2.50;;;1.70;;
1404;SDS011;697;51.114;6.542;2023-08-06T05:30:06;2.47;;;2.17;;
1404;SDS011;697;51.114;6.542;2023-08-06T05:32:33;4.10;;;2.30;;
1404;SDS011;697;51.114;6.542;2023-08-06T05:35:00;2.57;;;2.10;;
1404;SDS011;697;51.114;6.542;2023-08-06T05:37:26;3.20;;;2.73;;
1404;SDS011;697;51.114;6.542;2023-08-06T05:39:54;3.57;;;2.27;;
1404;SDS011;697;51.114;6.542;2023-08-06T05:42:21;2.60;;;2.10;;
1404;SDS011;697;51.114;6.542;2023-08-06T05:44:48;4.00;;;2.73;;
1404;SDS011;697;51.114;6.542;2023-08-06T05:47:14;4.60;;;2.90;;
1404;SDS011;697;51.114;6.542;2023-08-06T05:49:41;2.50;;;2.17;;
1404;SDS011;697;51.114;6.542;2023-08-06T05:52:08;2.77;;;2.53;;
1404;SDS011;697;51.114;6.542;2023-08-06T05:54:34;2.23;;;2.13;;
1404;SDS011;697;51.114;6.542;2023-08-06T05:57:03;3.03;;;2.13;;
1404;SDS011;697;51.114;6.542;2023-08-06T05:59:30;3.73;;;2.30;;
1404;SDS011;697;51.114;6.542;2023-08-06T06:01:57;2.40;;;2.23;;
1404;SDS011;697;51.114;6.542;2023-08-06T06:04:24;2.50;;;2.30;;
1404;SDS011;697;51.114;6.542;2023-08-06T06:06:51;2.97;;;2.43;;
1404;SDS011;697;51.114;6.542;2023-08-06T06:09:18;2.37;;;2.17;;
1404;SDS011;697;51.114;6.542;2023-08-06T06:11:44;1.73;;;1.63;;
1404;SDS011;697;51.114;6.542;2023-08-06T06:14:12;2.00;;;1.80;;
1404;SDS011;697;51.114;6.542;2023-08-06T06:16:39;1.73;;;1.63;;
1404;SDS011;697;51.114;6.542;2023-08-06T06:19:05;1.90;;;1.53;;
1404;SDS011;697;51.114;6.542;2023-08-06T06:21:32;1.57;;;1.43;;
1404;SDS011;697;51.114;6.542;2023-08-06T06:23:59;1.70;;;1.60;;
1404;SDS011;697;51.114;6.542;2023-08-06T06:26:25;1.60;;;1.50;;
1404;SDS011;697;51.114;6.542;2023-08-06T06:28:53;1.50;;;1.40;;
1404;SDS011;697;51.114;6.542;2023-08-06T06:31:21;1.63;;;1.53;;
1404;SDS011;697;51.114;6.542;2023-08-06T06:33:48;1.90;;;1.33;;
1404;SDS011;697;51.114;6.542;2023-08-06T06:36:15;1.37;;;1.27;;
1404;SDS011;697;51.114;6.542;2023-08-06T06:38:41;2.10;;;1.77;;
1404;SDS011;697;51.114;6.542;2023-08-06T06:41:08;1.10;;;1.00;;
1404;SDS011;697;51.114;6.542;2023-08-06T06:43:35;1.10;;;1.00;;
1404;SDS011;697;51.114;6.542;2023-08-06T06:46:02;1.23;;;1.13;;
1404;SDS011;697;51.114;6.542;2023-08-06T06:48:31;1.30;;;1.20;;
1404;SDS011;697;51.114;6.542;2023-08-06T06:50:58;1.30;;;1.20;;
1404;SDS011;697;51.114;6.542;2023-08-06T06:53:25;1.43;;;1.17;;
1404;SDS011;697;51.114;6.542;2023-08-06T06:55:53;1.23;;;1.20;;
1404;SDS011;697;51.114;6.542;2023-08-06T06:58:19;7.77;;;3.27;;
1404;SDS011;697;51.114;6.542;2023-08-06T07:00:46;2.00;;;1.00;;
1404;SDS011;697;51.114;6.542;2023-08-06T07:03:13;1.47;;;1.30;;
1404;SDS011;697;51.114;6.542;2023-08-06T07:05:41;0.80;;;0.80;;
1404;SDS011;697;51.114;6.542;2023-08-06T07:08:08;1.50;;;1.13;;
1404;SDS011;697;51.114;6.542;2023-08-06T07:10:35;1.30;;;1.20;;
1404;SDS011;697;51.114;6.542;2023-08-06T07:13:01;2.23;;;1.30;;
1404;SDS011;697;51.114;6.542;2023-08-06T07:15:28;1.63;;;1.40;;
1404;SDS011;697;51.114;6.542;2023-08-06T07:17:55;1.17;;;1.17;;
1404;SDS011;697;51.114;6.542;2023-08-06T07:20:21;1.97;;;1.63;;
1404;SDS011;697;51.114;6.542;2023-08-06T07:22:49;2.80;;;1.80;;
1404;SDS011;697;51.114;6.542;2023-08-06T07:25:16;2.00;;;1.30;;
1404;SDS011;697;51.114;6.542;2023-08-06T07:27:43;1.60;;;1.50;;
1404;SDS011;697;51.114;6.542;2023-08-06T07:30:10;2.03;;;1.50;;
1404;SDS011;697;51.114;6.542;2023-08-06T07:32:37;2.57;;;2.00;;
1404;SDS011;697;51.114;6.542;2023-08-06T07:35:04;2.47;;;1.90;;
1404;SDS011;697;51.114;6.542;2023-08-06T07:37:33;3.30;;;3.10;;
1404;SDS011;697;51.114;6.542;2023-08-06T07:40:01;2.50;;;2.30;;
1404;SDS011;697;51.114;6.542;2023-08-06T07:42:29;2.33;;;2.10;;
1404;SDS011;697;51.114;6.542;2023-08-06T07:44:56;2.00;;;1.90;;
1404;SDS011;697;51.114;6.542;2023-08-06T07:47:24;2.07;;;1.97;;
1404;SDS011;697;51.114;6.542;2023-08-06T07:49:51;2.50;;;2.30;;
1404;SDS011;697;51.114;6.542;2023-08-06T07:52:18;2.20;;;2.00;;
1404;SDS011;697;51.114;6.542;2023-08-06T07:54:45;1.60;;;1.50;;
1404;SDS011;697;51.114;6.542;2023-08-06T07:57:13;1.80;;;1.70;;
1404;SDS011;697;51.114;6.542;2023-08-06T07:59:40;2.13;;;2.03;;
1404;SDS011;697;51.114;6.542;2023-08-06T08:02:07;1.60;;;1.50;;
1404;SDS011;697;51.114;6.542;2023-08-06T08:04:33;1.63;;;1.53;;
1404;SDS011;697;51.114;6.542;2023-08-06T08:07:00;2.00;;;1.90;;
1404;SDS011;697;51.114;6.542;2023-08-06T08:09:27;2.37;;;1.70;;
1404;SDS011;697;51.114;6.542;2023-08-06T08:11:54;1.17;;;1.10;;
1404;SDS011;697;51.114;6.542;2023-08-06T08:14:22;1.90;;;1.70;;
1404;SDS011;697;51.114;6.542;2023-08-06T08:16:49;2.10;;;1.30;;
1404;SDS011;697;51.114;6.542;2023-08-06T08:19:16;2.30;;;2.10;;
1404;SDS011;697;51.114;6.542;2023-08-06T08:21:42;2.73;;;2.50;;
1404;SDS011;697;51.114;6.542;2023-08-06T08:24:09;1.90;;;1.80;;
1404;SDS011;697;51.114;6.542;2023-08-06T08:26:36;1.87;;;1.77;;
1404;SDS011;697;51.114;6.542;2023-08-06T08:29:02;1.57;;;1.40;;
1404;SDS011;697;51.114;6.542;2023-08-06T08:31:31;2.40;;;2.00;;
1404;SDS011;697;51.114;6.542;2023-08-06T08:34:04;1.70;;;1.60;;
1404;SDS011;697;51.114;6.542;2023-08-06T08:36:30;1.67;;;1.57;;
1404;SDS011;697;51.114;6.542;2023-08-06T08:38:57;2.27;;;1.90;;
1404;SDS011;697;51.114;6.542;2023-08-06T08:41:24;2.23;;;2.13;;
1404;SDS011;697;51.114;6.542;2023-08-06T08:43:51;2.13;;;2.00;;
1404;SDS011;697;51.114;6.542;2023-08-06T08:46:19;2.27;;;2.07;;
1404;SDS011;697;51.114;6.542;2023-08-06T08:48:47;2.30;;;2.10;;
1404;SDS011;697;51.114;6.542;2023-08-06T08:51:14;2.60;;;2.40;;
1404;SDS011;697;51.114;6.542;2023-08-06T08:53:42;2.23;;;2.13;;
1404;SDS011;697;51.114;6.542;2023-08-06T08:56:11;2.00;;;1.90;;
1404;SDS011;697;51.114;6.542;2023-08-06T08:58:39;1.53;;;1.43;;
1404;SDS011;697;51.114;6.542;2023-08-06T09:01:06;2.13;;;1.92;;
1404;SDS011;697;51.114;6.542;2023-08-06T09:03:34;2.60;;;1.77;;
1404;SDS011;697;51.114;6.542;2023-08-06T09:06:04;1.73;;;1.63;;
1404;SDS011;697;51.114;6.542;2023-08-06T09:08:34;0.60;;;0.60;;
1404;SDS011;697;51.114;6.542;2023-08-06T09:11:03;2.40;;;1.10;;
1404;SDS011;697;51.114;6.542;2023-08-06T09:13:31;1.63;;;0.93;;
1404;SDS011;697;51.114;6.542;2023-08-06T09:15:57;1.17;;;0.60;;
1404;SDS011;697;51.114;6.542;2023-08-06T09:18:25;0.87;;;0.53;;
1404;SDS011;697;51.114;6.542;2023-08-06T09:20:53;0.60;;;0.43;;
1404;SDS011;697;51.114;6.542;2023-08-06T09:23:21;0.60;;;0.60;;
1404;SDS011;697;51.114;6.542;2023-08-06T09:25:54;0.63;;;0.53;;
1404;SDS011;697;51.114;6.542;2023-08-06T09:28:21;0.60;;;0.60;;
1404;SDS011;697;51.114;6.542;2023-08-06T09:30:49;1.73;;;0.90;;
1404;SDS011;697;51.114;6.542;2023-08-06T09:33:17;1.23;;;0.80;;
1404;SDS011;697;51.114;6.542;2023-08-06T09:35:45;0.80;;;0.80;;
1404;SDS011;697;51.114;6.542;2023-08-06T09:38:13;2.20;;;1.40;;
1404;SDS011;697;51.114;6.542;2023-08-06T09:40:41;1.07;;;1.03;;
1404;SDS011;697;51.114;6.542;2023-08-06T09:43:08;1.10;;;1.00;;
1404;SDS011;697;51.114;6.542;2023-08-06T09:45:35;1.63;;;0.80;;
1404;SDS011;697;51.114;6.542;2023-08-06T09:48:04;1.20;;;1.10;;
1404;SDS011;697;51.114;6.542;2023-08-06T09:50:31;0.70;;;0.70;;
1404;SDS011;697;51.114;6.542;2023-08-06T09:53:01;2.03;;;0.80;;
1404;SDS011;697;51.114;6.542;2023-08-06T09:55:28;0.63;;;0.63;;
1404;SDS011;697;51.114;6.542;2023-08-06T09:57:56;1.00;;;1.00;;
1404;SDS011;697;51.114;6.542;2023-08-06T10:00:25;2.00;;;1.20;;
1404;SDS011;697;51.114;6.542;2023-08-06T10:02:53;1.60;;;1.33;;
1404;SDS011;697;51.114;6.542;2023-08-06T10:05:21;1.70;;;1.60;;
1404;SDS011;697;51.114;6.542;2023-08-06T10:07:48;2.13;;;1.47;;
1404;SDS011;697;51.114;6.542;2023-08-06T10:10:16;2.00;;;1.80;;
1404;SDS011;697;51.114;6.542;2023-08-06T10:12:44;1.57;;;1.47;;
1404;SDS011;697;51.114;6.542;2023-08-06T10:15:16;1.67;;;1.37;;
1404;SDS011;697;51.114;6.542;2023-08-06T10:17:46;1.40;;;1.30;;
1404;SDS011;697;51.114;6.542;2023-08-06T10:20:15;1.70;;;1.60;;
1404;SDS011;697;51.114;6.542;2023-08-06T10:22:42;1.60;;;1.50;;
1404;SDS011;697;51.114;6.542;2023-08-06T10:25:09;1.60;;;1.13;;
1404;SDS011;697;51.114;6.542;2023-08-06T10:27:39;1.83;;;1.30;;
1404;SDS011;697;51.114;6.542;2023-08-06T10:30:24;1.67;;;1.57;;
1404;SDS011;697;51.114;6.542;2023-08-06T10:32:53;1.57;;;1.30;;
1404;SDS011;697;51.114;6.542;2023-08-06T10:35:28;1.80;;;1.40;;
1404;SDS011;697;51.114;6.542;2023-08-06T10:38:09;1.70;;;1.43;;
1404;SDS011;697;51.114;6.542;2023-08-06T10:40:39;4.07;;;2.00;;
1404;SDS011;697;51.114;6.542;2023-08-06T10:43:07;3.83;;;1.80;;
1404;SDS011;697;51.114;6.542;2023-08-06T10:45:36;1.77;;;1.67;;
1404;SDS011;697;51.114;6.542;2023-08-06T10:48:04;4.07;;;1.87;;
1404;SDS011;697;51.114;6.542;2023-08-06T10:50:31;4.57;;;2.60;;
1404;SDS011;697;51.114;6.542;2023-08-06T10:53:03;3.10;;;2.13;;
1404;SDS011;697;51.114;6.542;2023-08-06T10:55:31;3.83;;;2.10;;
1404;SDS011;697;51.114;6.542;2023-08-06T10:57:57;4.10;;;2.20;;
1404;SDS011;697;51.114;6.542;2023-08-06T11:00:24;3.20;;;2.47;;
1404;SDS011;697;51.114;6.542;2023-08-06T11:02:52;6.03;;;2.60;;
1404;SDS011;697;51.114;6.542;2023-08-06T11:05:20;3.63;;;2.70;;
1404;SDS011;697;51.114;6.542;2023-08-06T11:07:46;2.30;;;2.07;;
1404;SDS011;697;51.114;6.542;2023-08-06T11:10:14;3.80;;;2.40;;
1404;SDS011;697;51.114;6.542;2023-08-06T11:12:41;4.20;;;2.50;;
1404;SDS011;697;51.114;6.542;2023-08-06T11:15:08;4.10;;;2.83;;
1404;SDS011;697;51.114;6.542;2023-08-06T11:17:36;4.80;;;1.93;;
1404;SDS011;697;51.114;6.542;2023-08-06T11:20:07;2.77;;;2.00;;
1404;SDS011;697;51.114;6.542;2023-08-06T11:22:35;2.63;;;1.90;;
1404;SDS011;697;51.114;6.542;2023-08-06T11:25:04;5.53;;;2.67;;
1404;SDS011;697;51.114;6.542;2023-08-06T11:27:32;3.10;;;1.90;;
1404;SDS011;697;51.114;6.542;2023-08-06T11:29:59;3.70;;;1.77;;
1404;SDS011;697;51.114;6.542;2023-08-06T11:32:26;3.20;;;1.93;;
1404;SDS011;697;51.114;6.542;2023-08-06T11:34:53;4.30;;;2.23;;
1404;SDS011;697;51.114;6.542;2023-08-06T11:37:22;3.87;;;2.10;;
1404;SDS011;697;51.114;6.542;2023-08-06T11:39:50;4.13;;;2.27;;
1404;SDS011;697;51.114;6.542;2023-08-06T11:42:17;2.50;;;1.73;;
1404;SDS011;697;51.114;6.542;2023-08-06T11:44:44;4.60;;;2.27;;
1404;SDS011;697;51.114;6.542;2023-08-06T11:47:12;4.07;;;2.40;;
1404;SDS011;697;51.114;6.542;2023-08-06T11:49:41;3.33;;;2.10;;
1404;SDS011;697;51.114;6.542;2023-08-06T11:52:10;5.17;;;2.03;;
1404;SDS011;697;51.114;6.542;2023-08-06T11:54:40;3.70;;;1.83;;
1404;SDS011;697;51.114;6.542;2023-08-06T11:57:07;1.63;;;1.53;;
1404;SDS011;697;51.114;6.542;2023-08-06T11:59:34;6.23;;;1.70;;
1404;SDS011;697;51.114;6.542;2023-08-06T12:02:03;2.83;;;1.50;;
1404;SDS011;697;51.114;6.542;2023-08-06T12:04:31;1.70;;;1.30;;
1404;SDS011;697;51.114;6.542;2023-08-06T12:07:04;5.07;;;1.30;;
1404;SDS011;697;51.114;6.542;2023-08-06T12:09:32;1.93;;;1.20;;
1404;SDS011;697;51.114;6.542;2023-08-06T12:12:02;1.90;;;1.70;;
1404;SDS011;697;51.114;6.542;2023-08-06T12:14:29;2.20;;;1.30;;
1404;SDS011;697;51.114;6.542;2023-08-06T12:16:56;4.23;;;1.60;;
1404;SDS011;697;51.114;6.542;2023-08-06T12:19:23;2.50;;;1.43;;
1404;SDS011;697;51.114;6.542;2023-08-06T12:21:49;6.53;;;2.10;;
1404;SDS011;697;51.114;6.542;2023-08-06T12:24:16;3.17;;;1.77;;
1404;SDS011;697;51.114;6.542;2023-08-06T12:26:43;1.70;;;1.60;;
1404;SDS011;697;51.114;6.542;2023-08-06T12:29:11;3.00;;;2.07;;
1404;SDS011;697;51.114;6.542;2023-08-06T12:31:37;2.07;;;1.40;;
1404;SDS011;697;51.114;6.542;2023-08-06T12:34:04;2.77;;;2.50;;
1404;SDS011;697;51.114;6.542;2023-08-06T12:36:31;2.47;;;1.57;;
1404;SDS011;697;51.114;6.542;2023-08-06T12:38:58;3.20;;;1.60;;
1404;SDS011;697;51.114;6.542;2023-08-06T12:41:24;1.47;;;1.37;;
1404;SDS011;697;51.114;6.542;2023-08-06T12:43:51;3.50;;;1.87;;
1404;SDS011;697;51.114;6.542;2023-08-06T12:46:19;5.10;;;1.60;;
1404;SDS011;697;51.114;6.542;2023-08-06T12:48:46;3.23;;;1.97;;
1404;SDS011;697;51.114;6.542;2023-08-06T12:51:13;2.70;;;1.23;;
1404;SDS011;697;51.114;6.542;2023-08-06T12:53:40;2.30;;;1.80;;
1404;SDS011;697;51.114;6.542;2023-08-06T12:56:07;2.60;;;1.67;;
1404;SDS011;697;51.114;6.542;2023-08-06T12:58:33;3.20;;;1.80;;
1404;SDS011;697;51.114;6.542;2023-08-06T13:01:00;2.93;;;2.07;;
1404;SDS011;697;51.114;6.542;2023-08-06T13:03:28;3.00;;;2.03;;
1404;SDS011;697;51.114;6.542;2023-08-06T13:05:55;3.60;;;1.80;;
1404;SDS011;697;51.114;6.542;2023-08-06T13:08:22;2.77;;;2.00;;
1404;SDS011;697;51.114;6.542;2023-08-06T13:10:49;3.60;;;1.73;;
1404;SDS011;697;51.114;6.542;2023-08-06T13:13:16;4.37;;;1.77;;
1404;SDS011;697;51.114;6.542;2023-08-06T13:15:42;5.53;;;2.50;;
1404;SDS011;697;51.114;6.542;2023-08-06T13:18:09;5.00;;;2.00;;
1404;SDS011;697;51.114;6.542;2023-08-06T13:20:37;4.63;;;1.77;;
1404;SDS011;697;51.114;6.542;2023-08-06T13:23:04;3.93;;;2.17;;
1404;SDS011;697;51.114;6.542;2023-08-06T13:25:31;3.10;;;1.93;;
1404;SDS011;697;51.114;6.542;2023-08-06T13:28:01;2.67;;;2.00;;
1404;SDS011;697;51.114;6.542;2023-08-06T13:30:28;5.40;;;2.43;;
1404;SDS011;697;51.114;6.542;2023-08-06T13:32:55;5.07;;;2.10;;
1404;SDS011;697;51.114;6.542;2023-08-06T13:35:22;2.23;;;1.80;;
1404;SDS011;697;51.114;6.542;2023-08-06T13:37:50;3.80;;;1.73;;
1404;SDS011;697;51.114;6.542;2023-08-06T13:40:17;4.90;;;2.17;;
1404;SDS011;697;51.114;6.542;2023-08-06T13:42:43;2.70;;;2.07;;
1404;SDS011;697;51.114;6.542;2023-08-06T13:45:10;8.43;;;2.17;;
1404;SDS011;697;51.114;6.542;2023-08-06T13:47:37;4.17;;;2.00;;
1404;SDS011;697;51.114;6.542;2023-08-06T13:50:04;4.27;;;2.40;;
1404;SDS011;697;51.114;6.542;2023-08-06T13:52:31;3.63;;;2.10;;
1404;SDS011;697;51.114;6.542;2023-08-06T13:54:59;6.70;;;2.17;;
1404;SDS011;697;51.114;6.542;2023-08-06T13:57:27;3.63;;;1.37;;
1404;SDS011;697;51.114;6.542;2023-08-06T13:59:53;2.97;;;1.63;;
1404;SDS011;697;51.114;6.542;2023-08-06T14:02:20;2.80;;;1.30;;
1404;SDS011;697;51.114;6.542;2023-08-06T14:04:47;5.27;;;1.80;;
1404;SDS011;697;51.114;6.542;2023-08-06T14:07:14;2.70;;;1.30;;
1404;SDS011;697;51.114;6.542;2023-08-06T14:09:41;2.20;;;1.40;;
1404;SDS011;697;51.114;6.542;2023-08-06T14:12:10;4.33;;;1.40;;
1404;SDS011;697;51.114;6.542;2023-08-06T14:14:37;4.90;;;1.43;;
1404;SDS011;697;51.114;6.542;2023-08-06T14:17:03;1.70;;;1.17;;
1404;SDS011;697;51.114;6.542;2023-08-06T14:19:30;2.47;;;1.33;;
1404;SDS011;697;51.114;6.542;2023-08-06T14:21:57;3.33;;;1.40;;
1404;SDS011;697;51.114;6.542;2023-08-06T14:24:24;4.27;;;1.53;;
1404;SDS011;697;51.114;6.542;2023-08-06T14:26:50;4.03;;;1.67;;
1404;SDS011;697;51.114;6.542;2023-08-06T14:29:18;2.43;;;1.93;;
1404;SDS011;697;51.114;6.542;2023-08-06T14:31:45;7.30;;;2.10;;
1404;SDS011;697;51.114;6.542;2023-08-06T14:34:12;3.67;;;1.70;;
1404;SDS011;697;51.114;6.542;2023-08-06T14:36:39;3.67;;;1.70;;
1404;SDS011;697;51.114;6.542;2023-08-06T14:39:05;5.53;;;1.90;;
1404;SDS011;697;51.114;6.542;2023-08-06T14:41:32;6.80;;;1.90;;
1404;SDS011;697;51.114;6.542;2023-08-06T14:43:59;4.37;;;1.30;;
1404;SDS011;697;51.114;6.542;2023-08-06T14:46:27;5.00;;;1.47;;
1404;SDS011;697;51.114;6.542;2023-08-06T14:48:53;4.73;;;1.20;;
1404;SDS011;697;51.114;6.542;2023-08-06T14:51:20;1.90;;;1.23;;
1404;SDS011;697;51.114;6.542;2023-08-06T14:53:47;2.23;;;1.00;;
1404;SDS011;697;51.114;6.542;2023-08-06T14:56:14;3.77;;;1.30;;
1404;SDS011;697;51.114;6.542;2023-08-06T14:58:40;1.70;;;1.20;;
1404;SDS011;697;51.114;6.542;2023-08-06T15:01:08;5.37;;;2.03;;
1404;SDS011;697;51.114;6.542;2023-08-06T15:03:36;4.57;;;1.20;;
1404;SDS011;697;51.114;6.542;2023-08-06T15:06:02;3.03;;;1.63;;
1404;SDS011;697;51.114;6.542;2023-08-06T15:08:29;4.67;;;1.30;;
1404;SDS011;697;51.114;6.542;2023-08-06T15:10:56;3.43;;;1.60;;
1404;SDS011;697;51.114;6.542;2023-08-06T15:13:23;2.97;;;1.30;;
1404;SDS011;697;51.114;6.542;2023-08-06T15:15:50;3.60;;;1.30;;
1404;SDS011;697;51.114;6.542;2023-08-06T15:18:16;4.20;;;1.07;;
1404;SDS011;697;51.114;6.542;2023-08-06T15:20:45;4.40;;;1.30;;
1404;SDS011;697;51.114;6.542;2023-08-06T15:23:12;4.30;;;1.30;;
1404;SDS011;697;51.114;6.542;2023-08-06T15:25:38;3.07;;;1.10;;
1404;SDS011;697;51.114;6.542;2023-08-06T15:28:05;5.13;;;1.90;;
1404;SDS011;697;51.114;6.542;2023-08-06T15:30:32;3.43;;;1.50;;